sensor_id;sensor_type;location;lat;lon;timestamp;temperature;humidity
1155;DHT22;566;48.414;9.118;2022-12-16T00:00:45;-2.30;77.90
1155;DHT22;566;48.414;9.118;2022-12-16T00:03:11;-2.20;76.40
1155;DHT22;566;48.414;9.118;2022-12-16T00:05:36;-2.30;78.20
1155;DHT22;566;48.414;9.118;2022-12-16T00:08:03;-2.30;76.80
1155;DHT22;566;48.414;9.118;2022-12-16T00:10:29;-2.30;76.90
1155;DHT22;566;48.414;9.118;2022-12-16T00:13:14;-2.20;77.90
1155;DHT22;566;48.414;9.118;2022-12-16T00:15:40;-2.20;77.60
1155;DHT22;566;48.414;9.118;2022-12-16T00:18:08;-2.20;77.30
1155;DHT22;566;48.414;9.118;2022-12-16T00:20:37;-2.20;77.90
1155;DHT22;566;48.414;9.118;2022-12-16T00:23:07;-2.30;78.40
1155;DHT22;566;48.414;9.118;2022-12-16T00:25:32;-2.30;78.00
1155;DHT22;566;48.414;9.118;2022-12-16T00:27:58;-2.30;77.90
1155;DHT22;566;48.414;9.118;2022-12-16T00:30:24;-2.40;78.90
1155;DHT22;566;48.414;9.118;2022-12-16T00:32:49;-2.30;78.10
1155;DHT22;566;48.414;9.118;2022-12-16T00:35:15;-2.40;79.60
1155;DHT22;566;48.414;9.118;2022-12-16T00:37:40;-2.50;79.50
1155;DHT22;566;48.414;9.118;2022-12-16T00:40:09;-2.50;78.10
1155;DHT22;566;48.414;9.118;2022-12-16T00:42:35;-2.60;79.50
1155;DHT22;566;48.414;9.118;2022-12-16T00:45:00;-2.50;76.70
1155;DHT22;566;48.414;9.118;2022-12-16T00:47:26;-2.50;77.60
1155;DHT22;566;48.414;9.118;2022-12-16T00:49:54;-2.50;77.60
1155;DHT22;566;48.414;9.118;2022-12-16T00:52:20;-2.50;76.10
1155;DHT22;566;48.414;9.118;2022-12-16T00:54:45;-2.30;76.20
1155;DHT22;566;48.414;9.118;2022-12-16T00:57:11;-2.40;78.50
1155;DHT22;566;48.414;9.118;2022-12-16T00:59:36;-2.40;77.30
1155;DHT22;566;48.414;9.118;2022-12-16T01:02:02;-2.30;78.70
1155;DHT22;566;48.414;9.118;2022-12-16T01:04:27;-2.40;79.50
1155;DHT22;566;48.414;9.118;2022-12-16T01:06:56;-2.60;79.70
1155;DHT22;566;48.414;9.118;2022-12-16T01:09:22;-2.60;78.80
1155;DHT22;566;48.414;9.118;2022-12-16T01:11:47;-2.60;78.20
1155;DHT22;566;48.414;9.118;2022-12-16T01:14:16;-2.60;78.50
1155;DHT22;566;48.414;9.118;2022-12-16T01:16:41;-2.60;78.20
1155;DHT22;566;48.414;9.118;2022-12-16T01:19:07;-2.60;78.40
1155;DHT22;566;48.414;9.118;2022-12-16T01:21:32;-2.60;78.40
1155;DHT22;566;48.414;9.118;2022-12-16T01:23:58;-2.60;78.50
1155;DHT22;566;48.414;9.118;2022-12-16T01:26:27;-2.70;79.50
1155;DHT22;566;48.414;9.118;2022-12-16T01:28:52;-2.70;79.00
1155;DHT22;566;48.414;9.118;2022-12-16T01:31:19;-2.70;78.60
1155;DHT22;566;48.414;9.118;2022-12-16T01:33:45;-2.60;78.10
1155;DHT22;566;48.414;9.118;2022-12-16T01:36:10;-2.60;79.20
1155;DHT22;566;48.414;9.118;2022-12-16T01:38:36;-2.70;79.50
1155;DHT22;566;48.414;9.118;2022-12-16T01:41:02;-2.70;79.30
1155;DHT22;566;48.414;9.118;2022-12-16T01:43:31;-2.70;79.30
1155;DHT22;566;48.414;9.118;2022-12-16T01:46:08;-2.70;79.70
1155;DHT22;566;48.414;9.118;2022-12-16T01:48:43;-2.70;78.50
1155;DHT22;566;48.414;9.118;2022-12-16T01:53:41;-2.70;80.30
1155;DHT22;566;48.414;9.118;2022-12-16T01:56:13;-2.70;79.60
1155;DHT22;566;48.414;9.118;2022-12-16T01:58:42;-2.70;79.60
1155;DHT22;566;48.414;9.118;2022-12-16T02:01:09;-2.70;80.00
1155;DHT22;566;48.414;9.118;2022-12-16T02:03:36;-2.60;81.20
1155;DHT22;566;48.414;9.118;2022-12-16T02:06:03;-2.70;82.10
1155;DHT22;566;48.414;9.118;2022-12-16T02:08:30;-2.70;81.10
1155;DHT22;566;48.414;9.118;2022-12-16T02:11:16;-2.70;81.50
1155;DHT22;566;48.414;9.118;2022-12-16T02:33:32;-2.50;80.40
1155;DHT22;566;48.414;9.118;2022-12-16T02:36:17;-2.60;80.90
1155;DHT22;566;48.414;9.118;2022-12-16T02:39:00;-2.60;80.40
1155;DHT22;566;48.414;9.118;2022-12-16T02:41:41;-2.60;80.90
1155;DHT22;566;48.414;9.118;2022-12-16T02:44:10;-2.60;79.80
1155;DHT22;566;48.414;9.118;2022-12-16T02:46:51;-2.50;80.70
1155;DHT22;566;48.414;9.118;2022-12-16T02:51:43;-2.60;81.60
1155;DHT22;566;48.414;9.118;2022-12-16T02:54:11;-2.70;82.70
1155;DHT22;566;48.414;9.118;2022-12-16T02:57:18;-2.70;81.30
1155;DHT22;566;48.414;9.118;2022-12-16T03:00:05;-2.70;79.60
1155;DHT22;566;48.414;9.118;2022-12-16T03:02:58;-2.70;80.80
1155;DHT22;566;48.414;9.118;2022-12-16T03:05:38;-2.80;81.80
1155;DHT22;566;48.414;9.118;2022-12-16T03:08:30;-2.80;81.60
1155;DHT22;566;48.414;9.118;2022-12-16T03:11:03;-2.80;81.00
1155;DHT22;566;48.414;9.118;2022-12-16T03:13:34;-2.80;80.40
1155;DHT22;566;48.414;9.118;2022-12-16T03:16:04;-2.90;81.60
1155;DHT22;566;48.414;9.118;2022-12-16T03:18:36;-2.90;82.70
1155;DHT22;566;48.414;9.118;2022-12-16T03:21:05;-2.90;82.10
1155;DHT22;566;48.414;9.118;2022-12-16T03:23:44;-3.00;82.70
1155;DHT22;566;48.414;9.118;2022-12-16T03:26:19;-3.10;81.40
1155;DHT22;566;48.414;9.118;2022-12-16T03:31:53;-3.20;79.80
1155;DHT22;566;48.414;9.118;2022-12-16T03:36:58;-3.20;77.50
1155;DHT22;566;48.414;9.118;2022-12-16T03:39:25;-3.20;78.10
1155;DHT22;566;48.414;9.118;2022-12-16T03:41:55;-3.20;78.00
1155;DHT22;566;48.414;9.118;2022-12-16T03:44:22;-3.20;76.30
1155;DHT22;566;48.414;9.118;2022-12-16T03:46:49;-3.20;77.70
1155;DHT22;566;48.414;9.118;2022-12-16T03:49:15;-3.20;78.10
1155;DHT22;566;48.414;9.118;2022-12-16T03:51:40;-3.20;78.60
1155;DHT22;566;48.414;9.118;2022-12-16T03:54:06;-3.20;77.40
1155;DHT22;566;48.414;9.118;2022-12-16T03:56:32;-3.10;78.60
1155;DHT22;566;48.414;9.118;2022-12-16T03:58:57;-3.20;79.00
1155;DHT22;566;48.414;9.118;2022-12-16T04:01:23;-3.20;79.30
1155;DHT22;566;48.414;9.118;2022-12-16T04:03:49;-3.20;80.40
1155;DHT22;566;48.414;9.118;2022-12-16T04:06:15;-3.20;80.80
1155;DHT22;566;48.414;9.118;2022-12-16T04:08:47;-3.20;80.00
1155;DHT22;566;48.414;9.118;2022-12-16T04:11:13;-3.20;82.10
1155;DHT22;566;48.414;9.118;2022-12-16T04:14:19;-3.20;82.30
1155;DHT22;566;48.414;9.118;2022-12-16T04:17:03;-3.20;82.10
1155;DHT22;566;48.414;9.118;2022-12-16T04:19:47;-3.20;81.60
1155;DHT22;566;48.414;9.118;2022-12-16T04:22:38;-3.20;82.80
1155;DHT22;566;48.414;9.118;2022-12-16T04:25:30;-3.20;83.90
1155;DHT22;566;48.414;9.118;2022-12-16T04:27:57;-3.20;83.10
1155;DHT22;566;48.414;9.118;2022-12-16T04:30:23;-3.10;83.50
1155;DHT22;566;48.414;9.118;2022-12-16T04:32:51;-3.10;84.40
1155;DHT22;566;48.414;9.118;2022-12-16T04:35:40;-3.10;83.80
1155;DHT22;566;48.414;9.118;2022-12-16T04:38:28;-3.20;84.70
1155;DHT22;566;48.414;9.118;2022-12-16T04:41:13;-3.20;84.80
1155;DHT22;566;48.414;9.118;2022-12-16T04:43:57;-3.20;84.80
1155;DHT22;566;48.414;9.118;2022-12-16T04:46:41;-3.20;85.10
1155;DHT22;566;48.414;9.118;2022-12-16T04:49:25;-3.30;84.60
1155;DHT22;566;48.414;9.118;2022-12-16T04:52:10;-3.20;85.00
1155;DHT22;566;48.414;9.118;2022-12-16T04:54:54;-3.30;85.60
1155;DHT22;566;48.414;9.118;2022-12-16T04:57:38;-3.30;85.30
1155;DHT22;566;48.414;9.118;2022-12-16T05:00:23;-3.30;86.30
1155;DHT22;566;48.414;9.118;2022-12-16T05:03:07;-3.30;87.10
1155;DHT22;566;48.414;9.118;2022-12-16T05:05:51;-3.30;87.40
1155;DHT22;566;48.414;9.118;2022-12-16T05:08:35;-3.30;87.50
1155;DHT22;566;48.414;9.118;2022-12-16T05:11:20;-3.30;89.10
1155;DHT22;566;48.414;9.118;2022-12-16T05:14:06;-3.30;88.20
1155;DHT22;566;48.414;9.118;2022-12-16T05:16:51;-3.20;89.60
1155;DHT22;566;48.414;9.118;2022-12-16T05:19:35;-3.20;90.90
1155;DHT22;566;48.414;9.118;2022-12-16T05:22:19;-3.30;90.90
1155;DHT22;566;48.414;9.118;2022-12-16T05:25:03;-3.30;90.90
1155;DHT22;566;48.414;9.118;2022-12-16T05:27:53;-3.40;90.80
1155;DHT22;566;48.414;9.118;2022-12-16T05:30:37;-3.40;90.20
1155;DHT22;566;48.414;9.118;2022-12-16T05:33:21;-3.40;89.70
1155;DHT22;566;48.414;9.118;2022-12-16T05:36:06;-3.40;88.80
1155;DHT22;566;48.414;9.118;2022-12-16T05:38:51;-3.40;88.50
1155;DHT22;566;48.414;9.118;2022-12-16T05:41:35;-3.40;87.40
1155;DHT22;566;48.414;9.118;2022-12-16T05:44:19;-3.40;87.30
1155;DHT22;566;48.414;9.118;2022-12-16T05:47:03;-3.40;87.60
1155;DHT22;566;48.414;9.118;2022-12-16T05:49:47;-3.50;88.50
1155;DHT22;566;48.414;9.118;2022-12-16T05:52:32;-3.50;87.60
1155;DHT22;566;48.414;9.118;2022-12-16T05:55:16;-3.50;87.40
1155;DHT22;566;48.414;9.118;2022-12-16T05:58:00;-3.60;87.50
1155;DHT22;566;48.414;9.118;2022-12-16T06:00:44;-3.60;86.50
1155;DHT22;566;48.414;9.118;2022-12-16T06:03:28;-3.50;86.30
1155;DHT22;566;48.414;9.118;2022-12-16T06:06:12;-3.60;86.30
1155;DHT22;566;48.414;9.118;2022-12-16T06:08:56;-3.60;87.50
1155;DHT22;566;48.414;9.118;2022-12-16T06:11:40;-3.60;86.60
1155;DHT22;566;48.414;9.118;2022-12-16T06:14:24;-3.70;87.20
1155;DHT22;566;48.414;9.118;2022-12-16T06:17:11;-3.70;86.10
1155;DHT22;566;48.414;9.118;2022-12-16T06:19:58;-3.70;85.80
1155;DHT22;566;48.414;9.118;2022-12-16T06:22:52;-3.70;84.20
1155;DHT22;566;48.414;9.118;2022-12-16T06:25:38;-3.70;85.60
1155;DHT22;566;48.414;9.118;2022-12-16T06:28:22;-3.70;84.70
1155;DHT22;566;48.414;9.118;2022-12-16T06:31:07;-3.70;85.10
1155;DHT22;566;48.414;9.118;2022-12-16T06:33:51;-3.70;85.40
1155;DHT22;566;48.414;9.118;2022-12-16T06:36:35;-3.70;85.30
1155;DHT22;566;48.414;9.118;2022-12-16T06:39:19;-3.70;84.90
1155;DHT22;566;48.414;9.118;2022-12-16T06:42:03;-3.70;84.50
1155;DHT22;566;48.414;9.118;2022-12-16T06:44:48;-3.60;83.60
1155;DHT22;566;48.414;9.118;2022-12-16T06:47:32;-3.60;83.90
1155;DHT22;566;48.414;9.118;2022-12-16T06:50:16;-3.70;85.50
1155;DHT22;566;48.414;9.118;2022-12-16T06:53:00;-3.70;85.00
1155;DHT22;566;48.414;9.118;2022-12-16T06:55:44;-3.70;84.80
1155;DHT22;566;48.414;9.118;2022-12-16T06:58:28;-3.70;85.00
1155;DHT22;566;48.414;9.118;2022-12-16T07:01:12;-3.70;84.40
1155;DHT22;566;48.414;9.118;2022-12-16T07:03:57;-3.70;84.60
1155;DHT22;566;48.414;9.118;2022-12-16T07:06:41;-3.70;84.50
1155;DHT22;566;48.414;9.118;2022-12-16T07:09:25;-3.60;84.40
1155;DHT22;566;48.414;9.118;2022-12-16T07:12:09;-3.60;84.50
1155;DHT22;566;48.414;9.118;2022-12-16T07:15:07;-3.60;84.60
1155;DHT22;566;48.414;9.118;2022-12-16T07:17:51;-3.60;84.50
1155;DHT22;566;48.414;9.118;2022-12-16T07:20:35;-3.70;85.20
1155;DHT22;566;48.414;9.118;2022-12-16T07:23:22;-3.60;84.00
1155;DHT22;566;48.414;9.118;2022-12-16T07:26:09;-3.60;83.60
1155;DHT22;566;48.414;9.118;2022-12-16T07:28:53;-3.50;84.70
1155;DHT22;566;48.414;9.118;2022-12-16T07:31:37;-3.60;84.30
1155;DHT22;566;48.414;9.118;2022-12-16T07:34:21;-3.50;84.40
1155;DHT22;566;48.414;9.118;2022-12-16T07:37:05;-3.50;84.90
1155;DHT22;566;48.414;9.118;2022-12-16T07:39:50;-3.50;83.70
1155;DHT22;566;48.414;9.118;2022-12-16T07:42:34;-3.40;85.20
1155;DHT22;566;48.414;9.118;2022-12-16T07:45:18;-3.40;84.70
1155;DHT22;566;48.414;9.118;2022-12-16T07:48:06;-3.40;86.10
1155;DHT22;566;48.414;9.118;2022-12-16T07:50:50;-3.30;86.30
1155;DHT22;566;48.414;9.118;2022-12-16T07:53:34;-3.40;87.10
1155;DHT22;566;48.414;9.118;2022-12-16T07:56:18;-3.40;86.60
1155;DHT22;566;48.414;9.118;2022-12-16T07:59:02;-3.40;87.70
1155;DHT22;566;48.414;9.118;2022-12-16T08:01:46;-3.30;87.00
1155;DHT22;566;48.414;9.118;2022-12-16T08:04:30;-3.30;87.10
1155;DHT22;566;48.414;9.118;2022-12-16T08:07:14;-3.30;87.60
1155;DHT22;566;48.414;9.118;2022-12-16T08:09:58;-3.40;87.90
1155;DHT22;566;48.414;9.118;2022-12-16T08:12:42;-3.30;87.90
1155;DHT22;566;48.414;9.118;2022-12-16T08:15:26;-3.20;88.10
1155;DHT22;566;48.414;9.118;2022-12-16T08:18:11;-3.30;88.90
1155;DHT22;566;48.414;9.118;2022-12-16T08:20:55;-3.30;89.10
1155;DHT22;566;48.414;9.118;2022-12-16T08:23:39;-3.30;89.70
1155;DHT22;566;48.414;9.118;2022-12-16T08:26:23;-3.40;90.70
1155;DHT22;566;48.414;9.118;2022-12-16T08:29:07;-3.30;89.40
1155;DHT22;566;48.414;9.118;2022-12-16T08:31:51;-3.20;90.40
1155;DHT22;566;48.414;9.118;2022-12-16T08:34:35;-3.20;90.30
1155;DHT22;566;48.414;9.118;2022-12-16T08:37:20;-3.10;91.90
1155;DHT22;566;48.414;9.118;2022-12-16T08:40:04;-3.10;93.10
1155;DHT22;566;48.414;9.118;2022-12-16T08:42:48;-3.10;93.00
1155;DHT22;566;48.414;9.118;2022-12-16T08:45:32;-3.20;93.40
1155;DHT22;566;48.414;9.118;2022-12-16T08:48:17;-3.30;92.30
1155;DHT22;566;48.414;9.118;2022-12-16T08:51:02;-3.20;92.70
1155;DHT22;566;48.414;9.118;2022-12-16T08:53:47;-3.00;94.30
1155;DHT22;566;48.414;9.118;2022-12-16T08:56:31;-3.00;95.50
1155;DHT22;566;48.414;9.118;2022-12-16T08:59:17;-3.00;95.30
1155;DHT22;566;48.414;9.118;2022-12-16T09:02:01;-2.90;95.70
1155;DHT22;566;48.414;9.118;2022-12-16T09:04:45;-2.80;97.60
1155;DHT22;566;48.414;9.118;2022-12-16T09:07:29;-2.70;98.00
1155;DHT22;566;48.414;9.118;2022-12-16T09:10:14;-2.70;98.00
1155;DHT22;566;48.414;9.118;2022-12-16T09:13:10;-2.70;98.00
1155;DHT22;566;48.414;9.118;2022-12-16T09:15:54;-2.60;98.00
1155;DHT22;566;48.414;9.118;2022-12-16T09:18:38;-2.50;98.00
1155;DHT22;566;48.414;9.118;2022-12-16T09:21:22;-2.60;98.00
1155;DHT22;566;48.414;9.118;2022-12-16T09:24:06;-2.50;98.00
1155;DHT22;566;48.414;9.118;2022-12-16T09:26:50;-2.60;98.00
1155;DHT22;566;48.414;9.118;2022-12-16T09:29:34;-2.60;98.00
1155;DHT22;566;48.414;9.118;2022-12-16T09:32:18;-2.60;98.00
1155;DHT22;566;48.414;9.118;2022-12-16T09:35:03;-2.60;98.00
1155;DHT22;566;48.414;9.118;2022-12-16T09:37:47;-2.70;98.00
1155;DHT22;566;48.414;9.118;2022-12-16T09:40:36;-2.80;98.00
1155;DHT22;566;48.414;9.118;2022-12-16T09:46:43;-2.60;98.00
1155;DHT22;566;48.414;9.118;2022-12-16T09:52:15;-2.40;98.00
1155;DHT22;566;48.414;9.118;2022-12-16T09:55:03;-2.30;98.00
1155;DHT22;566;48.414;9.118;2022-12-16T09:57:48;-2.30;98.00
1155;DHT22;566;48.414;9.118;2022-12-16T10:00:32;-2.30;98.00
1155;DHT22;566;48.414;9.118;2022-12-16T10:03:26;-2.10;98.00
1155;DHT22;566;48.414;9.118;2022-12-16T10:06:33;-2.10;98.00
1155;DHT22;566;48.414;9.118;2022-12-16T10:12:17;-2.30;98.00
1155;DHT22;566;48.414;9.118;2022-12-16T10:18:49;-1.90;98.00
1155;DHT22;566;48.414;9.118;2022-12-16T10:25:00;-1.80;98.00
1155;DHT22;566;48.414;9.118;2022-12-16T10:28:15;-1.50;98.00
1155;DHT22;566;48.414;9.118;2022-12-16T10:30:58;-1.50;98.00
1155;DHT22;566;48.414;9.118;2022-12-16T10:33:44;-1.40;98.00
1155;DHT22;566;48.414;9.118;2022-12-16T10:36:31;-1.30;98.00
1155;DHT22;566;48.414;9.118;2022-12-16T10:39:31;-1.20;98.00
1155;DHT22;566;48.414;9.118;2022-12-16T10:42:27;-1.10;98.00
1155;DHT22;566;48.414;9.118;2022-12-16T10:45:27;-1.40;98.00
1155;DHT22;566;48.414;9.118;2022-12-16T10:48:12;-1.50;98.00
1155;DHT22;566;48.414;9.118;2022-12-16T10:51:00;-1.50;98.00
1155;DHT22;566;48.414;9.118;2022-12-16T10:53:45;-1.40;98.00
1155;DHT22;566;48.414;9.118;2022-12-16T10:56:59;-1.70;98.00
1155;DHT22;566;48.414;9.118;2022-12-16T10:59:46;-1.90;98.00
1155;DHT22;566;48.414;9.118;2022-12-16T11:02:30;-1.80;98.00
1155;DHT22;566;48.414;9.118;2022-12-16T11:08:30;-1.60;98.00
1155;DHT22;566;48.414;9.118;2022-12-16T11:11:27;-1.70;98.00
1155;DHT22;566;48.414;9.118;2022-12-16T11:14:25;-1.80;98.00
1155;DHT22;566;48.414;9.118;2022-12-16T11:23:23;-1.70;98.00
1155;DHT22;566;48.414;9.118;2022-12-16T11:26:14;-1.60;98.00
1155;DHT22;566;48.414;9.118;2022-12-16T11:29:16;-1.50;98.00
1155;DHT22;566;48.414;9.118;2022-12-16T11:32:20;-1.50;98.00
1155;DHT22;566;48.414;9.118;2022-12-16T11:35:26;-1.40;98.00
1155;DHT22;566;48.414;9.118;2022-12-16T11:38:17;-1.20;98.00
1155;DHT22;566;48.414;9.118;2022-12-16T11:41:03;-1.10;98.00
1155;DHT22;566;48.414;9.118;2022-12-16T11:43:51;-1.10;98.00
1155;DHT22;566;48.414;9.118;2022-12-16T11:46:38;-1.10;98.00
1155;DHT22;566;48.414;9.118;2022-12-16T11:49:29;-0.80;98.00
1155;DHT22;566;48.414;9.118;2022-12-16T11:52:19;-0.60;98.00
1155;DHT22;566;48.414;9.118;2022-12-16T11:55:23;-0.80;98.00
1155;DHT22;566;48.414;9.118;2022-12-16T11:58:23;-0.60;98.00
1155;DHT22;566;48.414;9.118;2022-12-16T12:03:56;-0.30;98.00
1155;DHT22;566;48.414;9.118;2022-12-16T12:07:02;-0.50;98.00
1155;DHT22;566;48.414;9.118;2022-12-16T12:10:05;-0.60;98.00
1155;DHT22;566;48.414;9.118;2022-12-16T12:13:24;-0.90;98.00
1155;DHT22;566;48.414;9.118;2022-12-16T12:19:19;-1.10;98.00
1155;DHT22;566;48.414;9.118;2022-12-16T12:22:11;-1.10;98.00
1155;DHT22;566;48.414;9.118;2022-12-16T12:25:11;-1.20;98.00
1155;DHT22;566;48.414;9.118;2022-12-16T12:31:11;-1.10;98.00
1155;DHT22;566;48.414;9.118;2022-12-16T12:34:12;-1.20;98.00
1155;DHT22;566;48.414;9.118;2022-12-16T12:37:23;-1.10;98.00
1155;DHT22;566;48.414;9.118;2022-12-16T12:40:26;-1.00;98.00
1155;DHT22;566;48.414;9.118;2022-12-16T12:46:52;-0.90;98.00
1155;DHT22;566;48.414;9.118;2022-12-16T12:50:05;-0.60;98.00
1155;DHT22;566;48.414;9.118;2022-12-16T12:53:25;-0.70;98.00
1155;DHT22;566;48.414;9.118;2022-12-16T12:56:35;-0.70;98.00
1155;DHT22;566;48.414;9.118;2022-12-16T12:59:34;-0.80;98.00
1155;DHT22;566;48.414;9.118;2022-12-16T13:02:23;-0.90;98.00
1155;DHT22;566;48.414;9.118;2022-12-16T13:05:12;-0.90;98.00
1155;DHT22;566;48.414;9.118;2022-12-16T13:11:20;-1.20;98.00
1155;DHT22;566;48.414;9.118;2022-12-16T13:17:21;-1.50;98.00
1155;DHT22;566;48.414;9.118;2022-12-16T13:23:36;-1.70;98.00
1155;DHT22;566;48.414;9.118;2022-12-16T13:26:23;-1.50;98.00
1155;DHT22;566;48.414;9.118;2022-12-16T13:35:03;-1.50;98.00
1155;DHT22;566;48.414;9.118;2022-12-16T13:41:03;-1.30;98.00
1155;DHT22;566;48.414;9.118;2022-12-16T13:43:58;-1.40;98.00
1155;DHT22;566;48.414;9.118;2022-12-16T13:47:02;-1.20;98.00
1155;DHT22;566;48.414;9.118;2022-12-16T13:49:50;-1.00;98.00
1155;DHT22;566;48.414;9.118;2022-12-16T13:58:42;-1.20;98.00
1155;DHT22;566;48.414;9.118;2022-12-16T14:01:35;-1.30;98.00
1155;DHT22;566;48.414;9.118;2022-12-16T14:04:30;-1.30;98.00
1155;DHT22;566;48.414;9.118;2022-12-16T14:07:20;-1.50;98.00
1155;DHT22;566;48.414;9.118;2022-12-16T14:10:05;-1.70;98.00
1155;DHT22;566;48.414;9.118;2022-12-16T14:13:02;-1.70;98.00
1155;DHT22;566;48.414;9.118;2022-12-16T14:21:46;-2.10;98.00
1155;DHT22;566;48.414;9.118;2022-12-16T14:24:32;-2.10;98.00
1155;DHT22;566;48.414;9.118;2022-12-16T14:27:19;-2.20;98.00
1155;DHT22;566;48.414;9.118;2022-12-16T14:30:20;-2.30;98.00
1155;DHT22;566;48.414;9.118;2022-12-16T14:33:23;-2.30;98.00
1155;DHT22;566;48.414;9.118;2022-12-16T14:36:26;-2.20;98.00
1155;DHT22;566;48.414;9.118;2022-12-16T14:39:20;-2.20;98.00
1155;DHT22;566;48.414;9.118;2022-12-16T14:48:23;-2.50;98.00
1155;DHT22;566;48.414;9.118;2022-12-16T14:51:26;-2.50;98.00
1155;DHT22;566;48.414;9.118;2022-12-16T14:54:35;-2.50;98.00
1155;DHT22;566;48.414;9.118;2022-12-16T14:57:20;-2.60;98.00
1155;DHT22;566;48.414;9.118;2022-12-16T15:02:54;-2.70;98.00
1155;DHT22;566;48.414;9.118;2022-12-16T15:05:40;-2.70;98.00
1155;DHT22;566;48.414;9.118;2022-12-16T15:08:25;-2.70;98.00
1155;DHT22;566;48.414;9.118;2022-12-16T15:11:13;-2.80;98.00
1155;DHT22;566;48.414;9.118;2022-12-16T15:14:02;-2.80;98.00
1155;DHT22;566;48.414;9.118;2022-12-16T15:16:47;-2.90;98.00
1155;DHT22;566;48.414;9.118;2022-12-16T15:19:39;-3.00;98.00
1155;DHT22;566;48.414;9.118;2022-12-16T15:22:24;-3.00;98.00
1155;DHT22;566;48.414;9.118;2022-12-16T15:25:16;-3.00;98.00
1155;DHT22;566;48.414;9.118;2022-12-16T15:28:00;-3.00;98.00
1155;DHT22;566;48.414;9.118;2022-12-16T15:30:46;-3.10;98.00
1155;DHT22;566;48.414;9.118;2022-12-16T15:33:35;-3.10;98.00
1155;DHT22;566;48.414;9.118;2022-12-16T15:39:34;-3.20;97.50
1155;DHT22;566;48.414;9.118;2022-12-16T15:42:23;-3.20;97.60
1155;DHT22;566;48.414;9.118;2022-12-16T15:45:46;-3.20;97.20
1155;DHT22;566;48.414;9.118;2022-12-16T15:48:32;-3.20;97.30
1155;DHT22;566;48.414;9.118;2022-12-16T15:51:38;-3.20;97.00
1155;DHT22;566;48.414;9.118;2022-12-16T15:54:24;-3.20;97.00
1155;DHT22;566;48.414;9.118;2022-12-16T15:57:29;-3.10;96.80
1155;DHT22;566;48.414;9.118;2022-12-16T16:00:27;-3.20;96.50
1155;DHT22;566;48.414;9.118;2022-12-16T16:03:28;-3.10;97.00
1155;DHT22;566;48.414;9.118;2022-12-16T16:06:23;-3.10;97.30
1155;DHT22;566;48.414;9.118;2022-12-16T16:09:15;-3.00;97.00
1155;DHT22;566;48.414;9.118;2022-12-16T16:12:02;-3.00;97.60
1155;DHT22;566;48.414;9.118;2022-12-16T16:14:46;-3.00;97.80
1155;DHT22;566;48.414;9.118;2022-12-16T16:17:31;-3.00;97.30
1155;DHT22;566;48.414;9.118;2022-12-16T16:20:16;-3.10;97.60
1155;DHT22;566;48.414;9.118;2022-12-16T16:23:01;-3.10;97.10
1155;DHT22;566;48.414;9.118;2022-12-16T16:25:47;-3.20;97.30
1155;DHT22;566;48.414;9.118;2022-12-16T16:28:32;-3.20;96.80
1155;DHT22;566;48.414;9.118;2022-12-16T16:31:16;-3.30;96.20
1155;DHT22;566;48.414;9.118;2022-12-16T16:34:00;-3.30;95.80
1155;DHT22;566;48.414;9.118;2022-12-16T16:36:45;-3.30;95.20
1155;DHT22;566;48.414;9.118;2022-12-16T16:39:30;-3.30;94.70
1155;DHT22;566;48.414;9.118;2022-12-16T16:42:14;-3.30;94.90
1155;DHT22;566;48.414;9.118;2022-12-16T16:45:00;-3.30;94.50
1155;DHT22;566;48.414;9.118;2022-12-16T16:47:44;-3.30;94.40
1155;DHT22;566;48.414;9.118;2022-12-16T16:50:28;-3.30;94.60
1155;DHT22;566;48.414;9.118;2022-12-16T16:53:15;-3.40;94.20
1155;DHT22;566;48.414;9.118;2022-12-16T16:55:59;-3.40;93.70
1155;DHT22;566;48.414;9.118;2022-12-16T16:58:47;-3.40;93.30
1155;DHT22;566;48.414;9.118;2022-12-16T17:01:32;-3.40;91.80
1155;DHT22;566;48.414;9.118;2022-12-16T17:04:16;-3.40;92.40
1155;DHT22;566;48.414;9.118;2022-12-16T17:07:00;-3.50;92.20
1155;DHT22;566;48.414;9.118;2022-12-16T17:09:44;-3.50;91.40
1155;DHT22;566;48.414;9.118;2022-12-16T17:12:31;-3.40;91.20
1155;DHT22;566;48.414;9.118;2022-12-16T17:18:03;-3.50;90.80
1155;DHT22;566;48.414;9.118;2022-12-16T17:20:47;-3.50;91.00
1155;DHT22;566;48.414;9.118;2022-12-16T17:23:32;-3.50;91.20
1155;DHT22;566;48.414;9.118;2022-12-16T17:26:16;-3.60;91.20
1155;DHT22;566;48.414;9.118;2022-12-16T17:29:03;-3.60;90.80
1155;DHT22;566;48.414;9.118;2022-12-16T17:31:47;-3.60;91.50
1155;DHT22;566;48.414;9.118;2022-12-16T17:34:31;-3.60;92.40
1155;DHT22;566;48.414;9.118;2022-12-16T17:37:15;-3.70;92.50
1155;DHT22;566;48.414;9.118;2022-12-16T17:40:00;-3.70;92.40
1155;DHT22;566;48.414;9.118;2022-12-16T17:42:44;-3.70;92.40
1155;DHT22;566;48.414;9.118;2022-12-16T17:45:28;-3.70;92.70
1155;DHT22;566;48.414;9.118;2022-12-16T17:48:12;-3.70;92.90
1155;DHT22;566;48.414;9.118;2022-12-16T17:50:57;-3.70;93.90
1155;DHT22;566;48.414;9.118;2022-12-16T17:53:41;-3.70;93.70
1155;DHT22;566;48.414;9.118;2022-12-16T17:56:25;-3.80;94.20
1155;DHT22;566;48.414;9.118;2022-12-16T17:59:09;-3.70;93.50
1155;DHT22;566;48.414;9.118;2022-12-16T18:01:53;-3.80;94.50
1155;DHT22;566;48.414;9.118;2022-12-16T18:04:38;-3.80;94.40
1155;DHT22;566;48.414;9.118;2022-12-16T18:07:21;-3.80;93.80
1155;DHT22;566;48.414;9.118;2022-12-16T18:10:06;-3.90;93.50
1155;DHT22;566;48.414;9.118;2022-12-16T18:12:51;-3.90;93.10
1155;DHT22;566;48.414;9.118;2022-12-16T18:15:35;-3.90;93.20
1155;DHT22;566;48.414;9.118;2022-12-16T18:18:19;-4.00;92.90
1155;DHT22;566;48.414;9.118;2022-12-16T18:21:10;-4.00;92.80
1155;DHT22;566;48.414;9.118;2022-12-16T18:23:55;-4.00;92.70
1155;DHT22;566;48.414;9.118;2022-12-16T18:26:39;-4.10;91.80
1155;DHT22;566;48.414;9.118;2022-12-16T18:29:24;-4.00;91.50
1155;DHT22;566;48.414;9.118;2022-12-16T18:32:09;-4.10;91.50
1155;DHT22;566;48.414;9.118;2022-12-16T18:34:53;-4.10;91.20
1155;DHT22;566;48.414;9.118;2022-12-16T18:37:37;-4.10;91.10
1155;DHT22;566;48.414;9.118;2022-12-16T18:40:21;-4.10;91.20
1155;DHT22;566;48.414;9.118;2022-12-16T18:43:05;-4.10;90.90
1155;DHT22;566;48.414;9.118;2022-12-16T18:45:51;-4.10;90.80
1155;DHT22;566;48.414;9.118;2022-12-16T18:48:39;-4.10;90.30
1155;DHT22;566;48.414;9.118;2022-12-16T18:51:23;-4.10;90.20
1155;DHT22;566;48.414;9.118;2022-12-16T18:54:07;-4.20;90.00
1155;DHT22;566;48.414;9.118;2022-12-16T18:56:52;-4.20;89.40
1155;DHT22;566;48.414;9.118;2022-12-16T18:59:36;-4.10;89.00
1155;DHT22;566;48.414;9.118;2022-12-16T19:02:20;-4.10;89.60
1155;DHT22;566;48.414;9.118;2022-12-16T19:05:04;-4.10;89.50
1155;DHT22;566;48.414;9.118;2022-12-16T19:07:49;-4.10;89.90
1155;DHT22;566;48.414;9.118;2022-12-16T19:10:33;-4.10;89.60
1155;DHT22;566;48.414;9.118;2022-12-16T19:13:17;-4.10;89.60
1155;DHT22;566;48.414;9.118;2022-12-16T19:16:01;-4.10;89.80
1155;DHT22;566;48.414;9.118;2022-12-16T19:18:46;-4.10;89.70
1155;DHT22;566;48.414;9.118;2022-12-16T19:21:30;-4.10;89.80
1155;DHT22;566;48.414;9.118;2022-12-16T19:24:14;-4.20;89.20
1155;DHT22;566;48.414;9.118;2022-12-16T19:26:58;-4.20;88.70
1155;DHT22;566;48.414;9.118;2022-12-16T19:29:43;-4.20;89.20
1155;DHT22;566;48.414;9.118;2022-12-16T19:32:26;-4.20;88.90
1155;DHT22;566;48.414;9.118;2022-12-16T19:35:10;-4.20;89.00
1155;DHT22;566;48.414;9.118;2022-12-16T19:37:55;-4.20;89.20
1155;DHT22;566;48.414;9.118;2022-12-16T19:40:39;-4.10;89.30
1155;DHT22;566;48.414;9.118;2022-12-16T19:43:23;-4.10;89.10
1155;DHT22;566;48.414;9.118;2022-12-16T19:46:07;-4.10;90.90
1155;DHT22;566;48.414;9.118;2022-12-16T19:48:51;-4.20;90.30
1155;DHT22;566;48.414;9.118;2022-12-16T19:51:35;-4.20;90.70
1155;DHT22;566;48.414;9.118;2022-12-16T19:54:20;-4.30;90.00
1155;DHT22;566;48.414;9.118;2022-12-16T19:57:04;-4.20;90.10
1155;DHT22;566;48.414;9.118;2022-12-16T19:59:48;-4.20;90.00